Time;durP1;ratioP1;P1;durP2;ratioP2;P2;SDS_P1;SDS_P2;PMS_P1;PMS_P2;Temp;Humidity;BMP_temperature;BMP_pressure;BME280_temperature;BME280_humidity;BME280_pressure;Samples;Min_cycle;Max_cycle;Signal;HPM_P1;HPM_P2
2022/01/28 00:00:41;;;;;;;;;38.00;35.00;;;;;9.01;84.13;102707.44;4999492;28;45306;-82
2022/01/28 00:03:10;;;;;;;;;44.50;39.50;;;;;9.02;84.56;102710.13;4999116;28;45230;-79
2022/01/28 00:05:37;;;;;;;;;48.75;39.75;;;;;8.99;84.22;102691.59;4999289;28;45371;-82
2022/01/28 00:08:04;;;;;;;;;44.00;39.50;;;;;8.95;84.28;102676.53;4998226;28;45608;-80
2022/01/28 00:10:31;;;;;;;;;50.50;36.50;;;;;9.06;84.59;102708.56;4998390;28;45227;-81
2022/01/28 00:15:37;;;;;;;;;34.50;29.25;;;;;9.02;84.15;102701.34;4979796;28;45299;-80
2022/01/28 00:39:35;;;;;;;;;47.50;39.25;;;;;9.12;83.69;102735.13;4937533;28;45324;-80
2022/01/28 00:42:01;;;;;;;;;49.75;38.00;;;;;9.08;83.68;102743.69;4937558;28;45580;-82
2022/01/28 00:44:26;;;;;;;;;42.00;35.25;;;;;9.10;84.02;102737.66;4918858;28;45385;-81
2022/01/28 00:46:52;;;;;;;;;44.25;37.75;;;;;9.07;84.01;102728.75;4919185;28;45446;-82
2022/01/28 00:49:17;;;;;;;;;41.25;35.75;;;;;9.02;83.44;102718.00;4918421;28;45336;-83
2022/01/28 00:51:43;;;;;;;;;38.75;34.75;;;;;9.13;84.19;102743.09;4945664;28;45333;-83
2022/01/28 00:54:09;;;;;;;;;39.50;36.00;;;;;9.11;83.54;102742.09;4993614;28;45520;-83
2022/01/28 00:56:34;;;;;;;;;44.25;38.50;;;;;9.05;83.25;102727.78;4997825;28;45491;-83
2022/01/28 00:59:00;;;;;;;;;37.50;36.00;;;;;9.05;83.43;102725.16;4998110;28;45410;-83
2022/01/28 01:01:29;;;;;;;;;42.00;37.25;;;;;9.06;83.43;102738.38;4997363;28;45442;-82
2022/01/28 01:03:55;;;;;;;;;40.00;35.25;;;;;8.92;83.60;102718.41;4981917;28;45246;-78
2022/01/28 01:06:21;;;;;;;;;50.25;38.50;;;;;9.12;83.59;102753.53;4998625;28;45358;-84
2022/01/28 01:08:46;;;;;;;;;41.25;38.50;;;;;9.10;83.89;102752.53;4998252;28;45882;-83
2022/01/28 01:11:12;;;;;;;;;43.75;35.75;;;;;9.04;83.42;102736.50;4998221;28;45310;-81
2022/01/28 01:13:39;;;;;;;;;42.75;36.25;;;;;8.64;83.24;102662.81;4998240;28;45220;-81
2022/01/28 01:16:06;;;;;;;;;51.00;38.25;;;;;8.95;83.44;102723.84;4998390;28;46142;-79
2022/01/28 01:18:50;;;;;;;;;47.75;39.00;;;;;9.08;83.29;102751.56;4997386;28;45430;-81
2022/01/28 01:21:22;;;;;;;;;44.25;37.00;;;;;9.00;83.34;102745.97;4991726;28;45512;-79
2022/01/28 01:23:52;;;;;;;;;38.75;33.50;;;;;8.89;83.60;102739.31;4984542;28;45408;-79
2022/01/28 01:26:18;;;;;;;;;44.50;37.50;;;;;9.06;83.86;102769.91;4991898;28;45539;-82
2022/01/28 01:28:43;;;;;;;;;47.50;38.50;;;;;8.81;84.04;102724.91;4997226;28;46563;-78
2022/01/28 01:31:14;;;;;;;;;45.75;39.00;;;;;8.76;83.35;102722.09;4997781;28;45211;-82
2022/01/28 01:34:09;;;;;;;;;47.75;38.75;;;;;9.04;83.34;102773.31;4997017;28;45542;-81
2022/01/28 01:36:35;;;;;;;;;47.25;40.00;;;;;9.03;83.83;102774.16;4998137;28;45494;-81
2022/01/28 01:39:01;;;;;;;;;41.75;39.00;;;;;9.05;83.20;102772.47;4992646;28;46495;-81
2022/01/28 01:41:33;;;;;;;;;49.50;38.25;;;;;9.04;82.98;102766.31;4987104;28;45542;-80
2022/01/28 01:44:07;;;;;;;;;52.00;40.75;;;;;9.06;83.65;102771.66;4988207;28;45468;-79
2022/01/28 01:52:02;;;;;;;;;39.50;35.50;;;;;8.98;83.38;102775.66;4997595;28;45221;-81
2022/01/28 01:54:34;;;;;;;;;42.00;36.25;;;;;9.04;82.83;102784.72;4997789;28;45230;-81
2022/01/28 01:57:01;;;;;;;;;40.25;38.25;;;;;9.03;83.20;102796.06;4997595;28;45292;-79
2022/01/28 01:59:26;;;;;;;;;39.50;32.50;;;;;8.83;82.93;102752.16;4997456;28;45286;-78
2022/01/28 02:01:52;;;;;;;;;44.00;38.00;;;;;9.07;83.10;102791.84;4997567;28;45372;-81
2022/01/28 02:04:17;;;;;;;;;48.00;39.00;;;;;9.08;82.67;102801.53;4999631;28;45316;-79
2022/01/28 02:06:43;;;;;;;;;44.50;40.00;;;;;9.06;82.55;102811.97;4996996;28;45405;-80
2022/01/28 02:09:09;;;;;;;;;43.00;36.00;;;;;8.94;82.58;102785.13;4997045;28;46274;-79
2022/01/28 02:11:35;;;;;;;;;46.25;37.50;;;;;9.04;82.79;102802.22;4997318;28;45337;-80
2022/01/28 02:14:01;;;;;;;;;39.25;31.50;;;;;8.98;82.76;102787.06;4997119;28;45427;-80
2022/01/28 02:16:27;;;;;;;;;44.25;40.50;;;;;9.05;81.96;102812.81;4997258;28;45413;-82
2022/01/28 02:18:55;;;;;;;;;43.50;39.00;;;;;9.00;82.20;102811.69;4997150;28;45566;-81
2022/01/28 02:21:21;;;;;;;;;40.50;36.50;;;;;9.02;82.15;102812.66;4997059;28;45438;-80
2022/01/28 02:23:51;;;;;;;;;35.75;34.25;;;;;8.96;81.70;102800.97;4997162;28;45261;-80
2022/01/28 02:26:17;;;;;;;;;28.50;28.00;;;;;9.04;82.06;102807.50;4996981;28;45487;-80
2022/01/28 02:28:47;;;;;;;;;45.25;38.50;;;;;9.02;82.01;102811.75;4997361;28;45628;-82
2022/01/28 02:31:18;;;;;;;;;43.75;37.25;;;;;8.87;81.88;102800.53;4996954;28;45206;-79
2022/01/28 02:33:43;;;;;;;;;40.00;36.00;;;;;8.90;82.07;102808.56;4997229;28;45403;-80
2022/01/28 02:36:09;;;;;;;;;46.00;35.75;;;;;8.88;82.09;102808.47;4997517;28;45337;-79
2022/01/28 02:38:35;;;;;;;;;37.00;32.25;;;;;8.75;81.87;102796.50;4997937;28;46003;-80
2022/01/28 02:41:02;;;;;;;;;35.25;33.25;;;;;8.90;82.08;102829.59;4998678;28;45223;-82
2022/01/28 02:46:01;;;;;;;;;38.00;33.00;;;;;8.85;81.99;102830.28;4997306;28;45297;-79
2022/01/28 02:48:29;;;;;;;;;44.50;35.75;;;;;8.82;81.93;102830.09;4995429;28;46040;-78
2022/01/28 02:53:26;;;;;;;;;35.00;30.00;;;;;8.77;81.69;102820.22;4981735;28;45283;-81
2022/01/28 02:56:02;;;;;;;;;36.25;30.00;;;;;8.80;81.52;102828.25;4991327;28;45488;-81
2022/01/28 02:58:28;;;;;;;;;46.75;36.00;;;;;8.76;81.69;102821.06;4987758;28;45369;-82
2022/01/28 03:00:56;;;;;;;;;40.50;35.50;;;;;8.80;81.73;102831.75;4985029;28;45249;-84
2022/01/28 03:03:24;;;;;;;;;43.00;35.50;;;;;8.78;82.05;102828.19;4997091;28;45327;-83
2022/01/28 03:05:51;;;;;;;;;33.25;30.50;;;;;8.79;81.72;102822.09;4999776;28;45388;-83
2022/01/28 03:08:18;;;;;;;;;41.25;37.50;;;;;8.76;81.70;102821.06;4989757;28;46324;-82
2022/01/28 03:11:06;;;;;;;;;40.00;33.50;;;;;8.71;81.70;102812.94;4997801;28;45821;-77
2022/01/28 03:13:35;;;;;;;;;46.25;38.50;;;;;8.67;81.99;102808.38;4999458;28;45666;-78
2022/01/28 03:16:15;;;;;;;;;38.75;33.50;;;;;8.59;81.87;102785.19;5003649;28;45231;-80
2022/01/28 03:18:48;;;;;;;;;41.75;35.25;;;;;8.71;82.22;102810.31;4986909;28;45481;-81
2022/01/28 03:23:52;;;;;;;;;41.50;36.00;;;;;8.68;81.96;102799.66;4991761;28;45380;-80
2022/01/28 03:26:18;;;;;;;;;36.00;34.00;;;;;8.67;82.07;102812.72;4987112;28;45406;-81
2022/01/28 03:28:44;;;;;;;;;39.00;36.50;;;;;8.65;81.66;102811.72;4988717;28;45589;-80
2022/01/28 03:31:10;;;;;;;;;50.50;39.00;;;;;8.60;81.83;102808.00;4985444;28;45183;-79
2022/01/28 03:33:35;;;;;;;;;36.25;32.00;;;;;8.41;81.44;102783.44;4976804;28;45389;-80
2022/01/28 03:36:04;;;;;;;;;39.50;35.75;;;;;8.64;81.61;102817.81;4995639;28;45221;-81
2022/01/28 03:38:30;;;;;;;;;50.00;39.75;;;;;8.55;81.65;102798.13;4999737;28;47010;-81
2022/01/28 03:40:56;;;;;;;;;38.75;35.25;;;;;8.63;81.39;102803.78;4988369;28;45988;-81
2022/01/28 03:43:23;;;;;;;;;41.75;36.25;;;;;8.59;81.74;102799.22;4980084;28;45348;-82
2022/01/28 03:45:48;;;;;;;;;42.75;36.25;;;;;8.49;81.95;102805.75;4990524;28;45508;-80
2022/01/28 03:48:14;;;;;;;;;43.00;36.25;;;;;8.57;81.78;102817.53;4991181;28;45630;-82
2022/01/28 03:50:39;;;;;;;;;36.75;32.75;;;;;8.58;81.75;102823.69;5000650;28;45282;-82
2022/01/28 03:53:06;;;;;;;;;42.00;37.75;;;;;8.52;82.01;102819.03;4979890;28;45331;-81
2022/01/28 03:55:32;;;;;;;;;11.75;6.00;;;;;8.59;81.65;102828.09;4979639;28;45479;-78
2022/01/28 03:57:57;;;;;;;;;43.75;35.50;;;;;8.63;81.40;102839.66;4996005;28;45963;-81
2022/01/28 04:00:28;;;;;;;;;38.00;32.75;;;;;8.17;81.01;102761.19;4980859;28;45302;-82
2022/01/28 04:03:37;;;;;;;;;42.00;38.00;;;;;8.64;81.12;102852.88;4978726;28;45447;-80
2022/01/28 04:13:45;;;;;;;;;46.00;36.25;;;;;8.64;80.84;102863.38;4998803;28;45360;-82
2022/01/28 04:18:45;;;;;;;;;35.75;31.75;;;;;8.67;81.30;102855.66;4985234;28;46044;-82
2022/01/28 04:21:10;;;;;;;;;46.50;37.00;;;;;8.66;80.87;102850.34;4998667;28;45266;-82
2022/01/28 04:23:36;;;;;;;;;34.00;32.75;;;;;8.49;81.03;102824.13;4998786;28;45506;-82
2022/01/28 04:26:01;;;;;;;;;39.50;32.50;;;;;8.50;80.91;102823.31;5001098;28;45352;-82
2022/01/28 04:28:27;;;;;;;;;33.75;30.75;;;;;8.63;80.87;102851.06;4995925;28;46183;-82
2022/01/28 04:30:52;;;;;;;;;43.25;34.75;;;;;8.62;81.13;102851.00;4986510;28;45388;-81
2022/01/28 04:33:18;;;;;;;;;43.50;32.00;;;;;8.60;81.36;102855.28;4988501;28;45442;-80
2022/01/28 04:35:46;;;;;;;;;38.75;37.25;;;;;8.61;81.00;102863.22;4993948;28;45279;-82
2022/01/28 04:38:27;;;;;;;;;43.50;35.25;;;;;8.60;81.04;102855.28;4996897;28;45812;-79
2022/01/28 04:41:09;;;;;;;;;42.00;35.00;;;;;8.43;80.43;102828.19;4998387;28;45401;-81
2022/01/28 04:43:44;;;;;;;;;39.50;31.25;;;;;8.33;80.76;102825.88;4998502;28;45271;-79
2022/01/28 04:46:45;;;;;;;;;40.25;36.00;;;;;8.43;81.06;102851.81;4996499;28;45580;-80
2022/01/28 04:49:04;;;;;;;;;35.75;31.75;;;;;8.38;81.21;102848.97;4978285;28;45190;-82
2022/01/28 04:57:22;;;;;;;;;34.75;32.50;;;;;8.35;80.30;102868.91;4965028;28;45449;-80
2022/01/28 05:07:42;;;;;;;;;25.75;24.75;;;;;8.20;81.82;102872.53;4962631;28;45379;-83
2022/01/28 05:24:24;;;;;;;;;49.75;40.75;;;;;8.05;82.39;102862.97;4896045;29;45512;-83
2022/01/28 05:26:59;;;;;;;;;47.25;39.75;;;;;8.15;82.31;102883.63;4882225;29;45502;-81
2022/01/28 05:29:24;;;;;;;;;52.25;42.00;;;;;7.99;82.02;102867.06;4880430;29;45618;-83
2022/01/28 05:31:50;;;;;;;;;48.75;38.25;;;;;7.87;82.28;102849.78;4880274;29;45565;-83
2022/01/28 05:34:16;;;;;;;;;54.75;40.25;;;;;8.07;82.26;102892.81;4879875;29;45592;-81
2022/01/28 05:36:41;;;;;;;;;41.75;36.25;;;;;8.11;82.61;102900.03;4887415;29;45409;-80
2022/01/28 05:39:07;;;;;;;;;48.50;38.25;;;;;8.14;82.20;102911.59;4868918;29;45266;-83
2022/01/28 05:41:32;;;;;;;;;46.50;38.75;;;;;8.14;82.77;102900.19;4874575;29;45613;-81
2022/01/28 05:44:00;;;;;;;;;43.00;37.75;;;;;7.99;82.91;102871.41;4867331;29;45445;-83
2022/01/28 05:46:28;;;;;;;;;43.50;36.00;;;;;8.06;82.42;102883.13;4884908;28;45269;-83
2022/01/28 05:48:54;;;;;;;;;50.25;37.00;;;;;8.24;81.86;102923.47;4916215;28;45415;-81
2022/01/28 05:51:19;;;;;;;;;47.00;39.50;;;;;8.13;81.76;102901.91;4899966;28;48269;-82
2022/01/28 05:53:44;;;;;;;;;40.25;37.00;;;;;8.14;81.65;102902.81;4910402;28;45404;-83
2022/01/28 05:56:10;;;;;;;;;43.25;36.25;;;;;8.24;81.48;102928.72;4916820;28;45650;-82
2022/01/28 05:58:35;;;;;;;;;40.50;38.25;;;;;8.10;82.02;102907.03;4917541;28;45495;-83
2022/01/28 06:01:01;;;;;;;;;44.50;37.00;;;;;8.27;81.77;102942.00;4949232;28;46171;-81
2022/01/28 06:03:26;;;;;;;;;53.75;36.75;;;;;8.20;81.62;102925.03;4981562;28;45482;-82
2022/01/28 06:05:52;;;;;;;;;44.50;39.25;;;;;8.29;81.81;102954.41;4996924;28;45611;-79
2022/01/28 06:08:17;;;;;;;;;49.75;39.25;;;;;8.11;82.18;102926.28;4995325;28;45342;-81
2022/01/28 06:10:43;;;;;;;;;39.00;35.50;;;;;8.30;81.99;102957.94;4977971;28;45432;-80
2022/01/28 06:13:11;;;;;;;;;46.25;37.25;;;;;8.18;81.64;102937.16;4989173;28;45495;-82
2022/01/28 06:15:40;;;;;;;;;43.25;38.50;;;;;8.29;81.98;102951.78;4991903;28;45886;-82
2022/01/28 06:18:05;;;;;;;;;39.75;36.50;;;;;8.31;81.32;102948.34;4997813;28;45524;-82
2022/01/28 06:20:30;;;;;;;;;48.25;37.75;;;;;8.32;81.42;102947.50;4992691;28;45337;-83
2022/01/28 06:22:57;;;;;;;;;38.25;34.75;;;;;8.34;81.39;102949.38;4996003;28;45491;-82
2022/01/28 06:25:23;;;;;;;;;39.25;36.50;;;;;8.37;81.68;102956.53;4986284;28;45337;-82
2022/01/28 06:27:48;;;;;;;;;37.75;33.75;;;;;8.37;81.64;102952.19;4996745;28;46883;-83
2022/01/28 06:30:16;;;;;;;;;53.25;38.75;;;;;8.35;81.67;102950.31;4993709;28;46099;-83
2022/01/28 06:32:41;;;;;;;;;47.50;38.25;;;;;8.38;81.37;102948.78;4985393;28;45235;-82
2022/01/28 06:35:08;;;;;;;;;45.00;36.75;;;;;8.21;81.22;102924.22;4980857;28;45494;-83
2022/01/28 06:37:38;;;;;;;;;41.50;38.00;;;;;8.41;81.22;102950.66;4982937;28;45282;-82
2022/01/28 06:40:06;;;;;;;;;47.25;38.75;;;;;8.43;81.06;102952.50;4994022;28;45503;-79
2022/01/28 06:42:31;;;;;;;;;45.00;37.25;;;;;8.40;81.24;102944.50;5000334;28;45381;-83
2022/01/28 06:44:57;;;;;;;;;35.25;33.25;;;;;8.43;81.18;102951.63;4993225;28;45444;-83
2022/01/28 06:47:22;;;;;;;;;37.75;35.00;;;;;8.46;81.01;102949.13;5002657;28;45399;-83
2022/01/28 06:49:48;;;;;;;;;36.75;33.00;;;;;8.46;80.17;102954.38;4984543;28;45904;-83
2022/01/28 06:52:13;;;;;;;;;51.25;44.00;;;;;8.38;80.98;102954.03;4982911;28;45361;-83
2022/01/28 06:54:39;;;;;;;;;58.00;43.50;;;;;8.37;80.50;102946.03;4996243;28;45171;-82
2022/01/28 06:57:04;;;;;;;;;55.25;44.50;;;;;8.44;80.86;102959.56;4994129;28;45409;-84
2022/01/28 06:59:30;;;;;;;;;55.25;43.25;;;;;8.42;80.85;102965.56;5000908;28;45404;-84
2022/01/28 07:01:55;;;;;;;;;53.25;44.00;;;;;8.38;80.32;102963.63;5000054;28;45351;-81
2022/01/28 07:04:21;;;;;;;;;55.00;44.75;;;;;8.35;80.67;102968.69;5000734;28;45492;-82
2022/01/28 07:06:46;;;;;;;;;65.50;49.75;;;;;8.31;80.47;102962.38;4975179;28;45531;-80
2022/01/28 07:09:12;;;;;;;;;66.00;52.50;;;;;8.31;80.43;102974.59;4986011;28;45432;-83
2022/01/28 07:11:38;;;;;;;;;64.50;50.75;;;;;8.24;80.48;102966.38;4996373;28;45895;-81
2022/01/28 07:14:03;;;;;;;;;66.67;50.00;;;;;8.25;80.66;102965.56;4994390;28;45498;-83
2022/01/28 07:16:30;;;;;;;;;58.50;44.25;;;;;8.26;80.52;102972.59;4985681;28;45303;-84
2022/01/28 07:18:56;;;;;;;;;61.75;48.25;;;;;8.26;80.62;102974.34;4994127;28;45440;-79
2022/01/28 07:21:21;;;;;;;;;63.50;49.50;;;;;8.00;80.34;102937.13;4987729;28;45394;-83
2022/01/28 07:23:46;;;;;;;;;55.50;45.25;;;;;8.25;80.87;102986.56;4999487;28;45261;-79
2022/01/28 07:26:15;;;;;;;;;62.00;48.75;;;;;8.13;80.46;102964.03;4989680;28;45349;-83
2022/01/28 07:28:41;;;;;;;;;63.50;48.50;;;;;8.03;80.65;102953.84;4974761;28;45533;-84
2022/01/28 07:31:09;;;;;;;;;56.75;44.75;;;;;8.24;80.35;102994.38;4987893;28;45496;-85
2022/01/28 07:33:34;;;;;;;;;58.00;49.25;;;;;8.00;80.67;102947.63;4989258;28;45361;-82
2022/01/28 07:36:00;;;;;;;;;38.50;29.25;;;;;8.26;80.47;102995.34;4988029;28;45270;-83
2022/01/28 07:38:26;;;;;;;;;48.75;42.75;;;;;8.26;80.38;102991.00;4997998;28;46117;-81
2022/01/28 07:40:51;;;;;;;;;47.00;42.25;;;;;8.24;80.54;102989.09;4999273;28;45187;-81
2022/01/28 07:43:17;;;;;;;;;59.25;47.75;;;;;7.96;80.32;102939.50;4991293;28;45611;-83
2022/01/28 07:45:42;;;;;;;;;61.00;49.75;;;;;8.17;80.11;102981.72;4988425;28;45444;-86
2022/01/28 07:48:08;;;;;;;;;59.00;48.50;;;;;7.83;80.41;102932.69;4995598;28;45509;-80
2022/01/28 07:50:33;;;;;;;;;63.25;49.00;;;;;8.29;79.82;103012.19;4991650;28;45345;-82
2022/01/28 07:52:59;;;;;;;;;58.25;46.75;;;;;8.31;79.71;103030.63;4993539;28;45511;-83
2022/01/28 07:55:25;;;;;;;;;52.25;43.00;;;;;8.29;80.12;103016.53;4982945;28;45500;-80
2022/01/28 07:57:50;;;;;;;;;54.00;43.75;;;;;8.36;80.01;103026.53;4988910;28;46091;-80
2022/01/28 08:00:16;;;;;;;;;58.75;47.75;;;;;8.25;79.87;102999.69;4998604;28;45353;-80
2022/01/28 08:02:42;;;;;;;;;63.00;47.50;;;;;8.39;79.55;103029.34;4984532;28;45450;-77
2022/01/28 08:05:09;;;;;;;;;58.75;47.50;;;;;8.41;78.78;103042.56;4994237;28;45439;-80
2022/01/28 08:07:35;;;;;;;;;65.50;46.00;;;;;8.38;79.61;103043.31;4987307;28;46207;-78
2022/01/28 08:10:01;;;;;;;;;62.75;46.25;;;;;8.43;79.45;103043.53;4987517;28;45407;-81
2022/01/28 08:12:29;;;;;;;;;57.25;46.50;;;;;8.44;79.32;103037.47;4974188;28;45523;-80
2022/01/28 08:14:54;;;;;;;;;61.75;48.00;;;;;8.45;79.40;103041.91;4989562;28;45635;-83
2022/01/28 08:17:20;;;;;;;;;56.75;48.50;;;;;8.31;79.35;103006.09;4973813;28;45997;-81
2022/01/28 08:19:45;;;;;;;;;53.50;44.25;;;;;8.47;78.99;103032.41;4990585;28;45532;-82
2022/01/28 08:22:10;;;;;;;;;64.00;50.50;;;;;8.49;79.12;103043.88;4973852;28;45441;-83
2022/01/28 08:24:36;;;;;;;;;60.75;49.25;;;;;8.52;79.63;103039.69;4976716;28;45727;-86
2022/01/28 08:27:02;;;;;;;;;60.75;48.00;;;;;8.52;79.28;103038.78;4990569;28;48183;-84
2022/01/28 08:29:28;;;;;;;;;58.00;46.75;;;;;8.18;78.39;102975.66;4983154;28;47065;-88
2022/01/28 08:31:53;;;;;;;;;57.50;49.25;;;;;8.10;79.00;102964.78;4976329;28;45341;-85
2022/01/28 08:34:19;;;;;;;;;68.00;49.75;;;;;8.00;78.73;102949.31;4995766;28;45553;-82
2022/01/28 08:36:44;;;;;;;;;64.50;50.00;;;;;8.21;78.56;103002.09;4995737;28;45458;-80
2022/01/28 08:39:10;;;;;;;;;60.25;46.00;;;;;8.43;78.50;103041.81;4990534;28;45716;-79
2022/01/28 08:41:39;;;;;;;;;62.50;49.00;;;;;8.29;78.04;103017.44;4988340;28;45527;-82
2022/01/28 08:44:04;;;;;;;;;62.25;50.00;;;;;8.65;78.55;103077.09;4989290;28;46108;-84
2022/01/28 08:46:30;;;;;;;;;66.75;51.75;;;;;8.67;77.59;103079.00;4990383;28;45909;-82
2022/01/28 08:48:55;;;;;;;;;57.75;47.25;;;;;8.58;77.71;103062.75;4977812;28;45455;-85
2022/01/28 08:51:21;;;;;;;;;59.25;46.25;;;;;8.47;77.39;103056.03;4990002;28;45509;-81
2022/01/28 08:53:47;;;;;;;;;49.00;41.75;;;;;8.10;76.65;102967.41;4988483;28;45599;-78
2022/01/28 08:56:12;;;;;;;;;49.75;41.25;;;;;8.79;75.76;103086.63;4992936;28;46231;-84
2022/01/28 08:58:37;;;;;;;;;49.00;39.75;;;;;8.56;76.08;103045.97;4991440;28;45416;-80
2022/01/28 09:01:03;;;;;;;;;44.25;38.50;;;;;8.52;75.08;103044.03;4992538;28;46014;-84
2022/01/28 09:03:29;;;;;;;;;39.75;36.50;;;;;8.87;74.74;103094.91;4990764;28;45492;-83
2022/01/28 09:05:54;;;;;;;;;45.50;36.75;;;;;8.80;74.83;103088.41;4989233;28;45595;-82
2022/01/28 09:08:20;;;;;;;;;49.75;40.25;;;;;8.73;74.50;103075.78;4992802;28;45447;-81
2022/01/28 09:10:56;;;;;;;;;50.25;40.50;;;;;9.06;74.02;103113.44;4995846;28;46171;-81
2022/01/28 09:13:26;;;;;;;;;53.00;41.25;;;;;9.04;73.96;103094.06;4996581;28;45603;-82
2022/01/28 09:15:54;;;;;;;;;47.00;40.00;;;;;9.10;73.52;103097.88;4993682;28;46332;-79
2022/01/28 09:18:20;;;;;;;;;40.25;34.25;;;;;9.25;73.33;103108.28;4995683;28;45421;-82
2022/01/28 09:20:46;;;;;;;;;46.50;38.25;;;;;9.27;72.88;103111.00;4990037;28;45505;-83
2022/01/28 09:23:13;;;;;;;;;40.25;36.00;;;;;9.29;72.29;103107.59;4974301;28;45397;-80
2022/01/28 09:25:38;;;;;;;;;39.25;36.00;;;;;9.36;72.13;103107.09;4976042;28;46918;-82
2022/01/28 09:28:04;;;;;;;;;38.00;35.50;;;;;9.43;71.70;103109.22;4993399;28;45519;-82
2022/01/28 09:30:30;;;;;;;;;37.25;35.25;;;;;9.58;71.40;103100.25;4993793;28;45400;-83
2022/01/28 09:32:58;;;;;;;;;40.75;31.75;;;;;9.70;70.84;103109.69;4990204;28;45467;-80
2022/01/28 09:35:25;;;;;;;;;34.25;33.25;;;;;9.74;70.87;103110.72;4987729;28;46287;-82
2022/01/28 09:37:52;;;;;;;;;41.25;37.50;;;;;9.90;70.02;103118.53;4990103;28;45465;-79
2022/01/28 09:40:18;;;;;;;;;47.75;37.50;;;;;9.95;69.90;103114.38;4989368;28;45446;-81
2022/01/28 09:42:46;;;;;;;;;39.25;35.50;;;;;10.06;68.62;103116.66;4972661;28;45416;-83
2022/01/28 09:45:16;;;;;;;;;33.50;21.25;;;;;10.02;68.28;103107.69;4980073;28;47966;-81
2022/01/28 09:47:42;;;;;;;;;26.00;25.50;;;;;10.17;68.45;103118.97;4998438;28;46279;-84
2022/01/28 09:50:08;;;;;;;;;41.50;33.75;;;;;9.77;68.75;103071.41;4971851;28;45429;-82
2022/01/28 09:52:35;;;;;;;;;34.75;31.00;;;;;10.13;69.25;103117.00;4978481;28;45485;-82
2022/01/28 09:55:01;;;;;;;;;29.25;25.75;;;;;9.88;67.56;103075.44;4992900;28;47176;-84
2022/01/28 09:57:26;;;;;;;;;34.25;33.25;;;;;10.11;68.63;103101.94;4975461;28;45459;-83
2022/01/28 09:59:52;;;;;;;;;36.75;32.00;;;;;10.28;67.14;103108.94;4977553;28;45404;-83
2022/01/28 10:02:18;;;;;;;;;41.00;34.75;;;;;10.33;66.69;103104.81;4989179;28;45444;-82
2022/01/28 10:04:44;;;;;;;;;35.25;31.75;;;;;10.07;66.77;103052.63;4972389;28;45313;-83
2022/01/28 10:07:16;;;;;;;;;37.25;36.25;;;;;10.50;66.57;103124.00;4988935;28;45721;-83
2022/01/28 10:09:58;;;;;;;;;39.00;32.00;;;;;10.50;66.49;103113.47;4995707;28;45486;-83
2022/01/28 10:12:44;;;;;;;;;42.75;29.75;;;;;10.54;66.35;103120.69;4978193;28;46732;-81
2022/01/28 10:15:28;;;;;;;;;35.75;29.75;;;;;10.37;65.73;103111.09;4986353;28;47346;-81
2022/01/28 10:17:57;;;;;;;;;31.75;29.25;;;;;10.24;66.29;103097.38;4975068;28;45367;-84
2022/01/28 10:20:25;;;;;;;;;40.75;35.75;;;;;10.30;66.52;103107.28;4988550;28;45562;-84
2022/01/28 10:23:01;;;;;;;;;36.00;32.50;;;;;9.99;66.62;103082.13;4998946;28;45396;-82
2022/01/28 10:25:37;;;;;;;;;37.75;31.00;;;;;10.24;67.96;103129.00;4986814;28;45482;-79
2022/01/28 10:28:08;;;;;;;;;39.50;32.25;;;;;10.21;66.77;103127.88;4990196;28;45443;-80
2022/01/28 10:30:41;;;;;;;;;39.25;30.00;;;;;10.12;66.48;103115.19;4988502;28;46176;-79
2022/01/28 10:33:21;;;;;;;;;36.75;32.75;;;;;10.19;67.36;103116.38;4988552;28;45526;-82
2022/01/28 10:36:02;;;;;;;;;34.50;31.75;;;;;10.00;67.01;103085.66;4992820;28;46393;-85
2022/01/28 10:38:31;;;;;;;;;31.00;28.00;;;;;10.28;66.35;103133.56;4978613;28;45748;-84
2022/01/28 10:41:14;;;;;;;;;37.25;32.50;;;;;10.32;66.50;103136.31;4993167;28;45615;-86
2022/01/28 10:43:48;;;;;;;;;30.75;29.50;;;;;10.13;66.33;103106.44;4976012;28;47250;-85
2022/01/28 10:46:34;;;;;;;;;31.75;29.75;;;;;10.26;65.60;103129.06;4970363;28;47880;-83
2022/01/28 10:49:06;;;;;;;;;36.75;31.25;;;;;10.35;65.66;103123.31;4986537;28;45473;-82
2022/01/28 10:51:48;;;;;;;;;33.25;24.00;;;;;10.49;65.68;103151.19;4988356;28;45584;-80
2022/01/28 10:54:20;;;;;;;;;38.75;32.25;;;;;10.68;64.81;103124.84;4985725;28;45587;-82
2022/01/28 10:56:46;;;;;;;;;37.25;32.50;;;;;10.91;64.52;103152.25;4989325;28;46463;-79
2022/01/28 10:59:16;;;;;;;;;33.50;28.00;;;;;10.97;63.20;103143.69;4968755;28;45295;-81
2022/01/28 11:01:42;;;;;;;;;32.75;31.75;;;;;11.00;63.86;103131.56;4990526;28;46915;-80
2022/01/28 11:04:10;;;;;;;;;28.25;24.75;;;;;11.05;62.18;103126.47;4989392;28;45445;-79
2022/01/28 11:06:36;;;;;;;;;23.25;22.25;;;;;11.24;62.64;103150.19;4987173;28;45479;-85
2022/01/28 11:09:02;;;;;;;;;30.50;25.25;;;;;11.21;62.82;103141.25;4985267;28;45886;-80
2022/01/28 11:11:28;;;;;;;;;32.50;25.75;;;;;11.18;61.99;103149.03;4986068;28;45456;-82
2022/01/28 11:13:53;;;;;;;;;29.00;26.25;;;;;11.02;62.58;103143.06;4972650;28;45643;-85
2022/01/28 11:16:19;;;;;;;;;32.00;30.00;;;;;10.96;62.95;103155.09;4987528;28;47458;-84
2022/01/28 11:18:45;;;;;;;;;22.75;19.50;;;;;10.50;62.15;103084.47;4989881;28;45746;-84
2022/01/28 11:21:15;;;;;;;;;33.75;27.25;;;;;10.81;63.29;103144.78;4988841;28;46513;-81
2022/01/28 11:24:07;;;;;;;;;33.00;28.50;;;;;10.54;63.60;103096.97;4994148;28;45519;-79
2022/01/28 11:27:03;;;;;;;;;38.00;30.75;;;;;10.82;63.34;103133.38;4989671;28;46487;-83
2022/01/28 11:29:29;;;;;;;;;28.50;26.75;;;;;10.67;63.43;103106.31;4988551;28;45432;-79
2022/01/28 11:31:57;;;;;;;;;33.25;26.25;;;;;10.34;63.64;103064.44;4990175;28;45526;-79
2022/01/28 11:34:27;;;;;;;;;33.50;31.75;;;;;10.60;64.20;103109.50;4993632;28;45528;-79
2022/01/28 11:36:56;;;;;;;;;28.75;25.75;;;;;10.42;64.25;103081.53;4985741;28;46240;-80
2022/01/28 11:39:37;;;;;;;;;34.25;31.25;;;;;10.54;63.53;103120.69;4990630;28;45463;-82
2022/01/28 11:42:15;;;;;;;;;29.25;29.00;;;;;10.51;63.45;103125.81;4990406;28;45491;-83
2022/01/28 11:44:45;;;;;;;;;28.75;22.75;;;;;10.33;63.74;103099.53;4988816;28;45427;-78
2022/01/28 11:47:20;;;;;;;;;27.25;24.75;;;;;10.16;64.08;103100.44;4989205;28;46095;-83
2022/01/28 11:50:13;;;;;;;;;28.75;24.00;;;;;10.28;64.31;103107.22;4990088;28;46355;-76
2022/01/28 11:52:52;;;;;;;;;21.50;21.00;;;;;10.30;63.93;103106.38;4937302;28;45544;-81
2022/01/28 11:55:31;;;;;;;;;41.75;30.25;;;;;10.17;64.53;103078.53;4935393;28;45567;-79
2022/01/28 11:58:01;;;;;;;;;32.00;25.50;;;;;9.97;65.47;103049.56;4932866;28;46212;-81
2022/01/28 12:00:39;;;;;;;;;33.00;30.00;;;;;10.16;65.48;103103.09;4936703;28;45614;-82
2022/01/28 12:03:24;;;;;;;;;35.25;29.25;;;;;10.09;65.71;103088.72;4934284;28;45458;-79
2022/01/28 12:05:56;;;;;;;;;33.50;27.00;;;;;9.80;65.33;103046.94;4935230;28;45594;-79
2022/01/28 12:08:29;;;;;;;;;31.25;27.25;;;;;9.98;65.49;103077.69;4937000;28;45577;-83
2022/01/28 12:10:57;;;;;;;;;34.25;23.50;;;;;10.00;66.10;103073.38;4935505;28;45361;-79
2022/01/28 12:14:04;;;;;;;;;32.25;24.50;;;;;9.93;66.36;103067.75;4935789;28;45618;-84
2022/01/28 12:16:35;;;;;;;;;39.25;34.25;;;;;9.93;66.82;103078.28;4896765;28;45451;-80
2022/01/28 12:19:02;;;;;;;;;30.25;28.25;;;;;9.81;66.45;103081.25;4897126;28;45514;-81
2022/01/28 12:21:35;;;;;;;;;32.75;30.50;;;;;9.65;67.41;103065.53;4897971;29;45596;-81
2022/01/28 12:24:18;;;;;;;;;33.75;26.00;;;;;9.66;66.80;103062.06;4897257;28;45477;-79
2022/01/28 12:27:02;;;;;;;;;27.00;23.25;;;;;9.30;67.66;102998.94;4898020;29;45495;-80
2022/01/28 12:29:33;;;;;;;;;27.50;25.75;;;;;9.65;67.21;103060.25;4921810;28;46256;-80
2022/01/28 12:32:00;;;;;;;;;29.50;25.25;;;;;9.60;66.80;103046.00;4954942;28;45402;-80
2022/01/28 12:34:26;;;;;;;;;25.75;22.75;;;;;9.56;67.23;103041.41;4954447;28;45469;-81
2022/01/28 12:36:53;;;;;;;;;32.75;27.00;;;;;9.57;67.50;103046.72;4955142;28;45385;-82
2022/01/28 12:39:32;;;;;;;;;26.00;24.75;;;;;9.29;66.58;102997.13;4954890;28;45483;-82